Time;durP1;ratioP1;P1;durP2;ratioP2;P2;SDS_P1;SDS_P2;PMS_P1;PMS_P2;Temp;Humidity;BMP_temperature;BMP_pressure;BME280_temperature;BME280_humidity;BME280_pressure;Samples;Min_cycle;Max_cycle;Signal;HPM_P1;HPM_P2
2022/11/01 00:01:00;;;;;;;13.55;4.68;;;15.00;99.90;;;;;;5012899;28;20541;-92
2022/11/01 00:03:26;;;;;;;10.20;4.63;;;15.00;99.90;;;;;;5017676;28;20025;-91
2022/11/01 00:05:52;;;;;;;9.70;4.07;;;15.10;99.90;;;;;;5016322;28;20086;-92
2022/11/01 00:08:17;;;;;;;12.82;4.20;;;15.20;99.90;;;;;;5013428;28;20018;-92
2022/11/01 00:10:43;;;;;;;8.90;4.05;;;15.20;99.90;;;;;;5015632;28;20131;-92
2022/11/01 00:13:09;;;;;;;12.50;4.82;;;15.30;99.90;;;;;;5017581;28;20036;-91
2022/11/01 00:15:34;;;;;;;11.95;5.05;;;15.40;99.90;;;;;;5015917;28;20040;-93
2022/11/01 00:18:00;;;;;;;17.30;4.22;;;15.30;99.90;;;;;;5018327;28;20076;-93
2022/11/01 00:20:26;;;;;;;7.93;4.13;;;15.40;99.90;;;;;;5010051;28;20032;-92
2022/11/01 00:22:51;;;;;;;10.45;4.25;;;15.40;99.90;;;;;;5013237;28;20038;-92
2022/11/01 00:25:17;;;;;;;13.05;4.95;;;15.50;99.90;;;;;;5005801;28;20042;-93
2022/11/01 00:27:42;;;;;;;10.38;4.45;;;15.40;99.90;;;;;;5006609;28;20025;-92
2022/11/01 00:30:09;;;;;;;13.30;5.63;;;15.50;99.90;;;;;;5015382;28;20050;-92
2022/11/01 00:32:34;;;;;;;12.15;4.22;;;15.40;99.90;;;;;;5010724;28;20018;-93
2022/11/01 00:35:00;;;;;;;13.32;4.82;;;15.50;99.90;;;;;;5008152;28;20033;-92
2022/11/01 00:37:27;;;;;;;12.10;4.82;;;15.50;99.90;;;;;;5016315;28;20022;-91
2022/11/01 00:39:53;;;;;;;11.73;4.82;;;15.50;99.90;;;;;;5017457;28;20026;-91
2022/11/01 00:42:19;;;;;;;19.85;5.32;;;15.50;99.90;;;;;;5013375;28;20187;-91
2022/11/01 00:44:44;;;;;;;12.95;5.13;;;15.50;99.90;;;;;;5017936;28;20041;-91
2022/11/01 00:47:10;;;;;;;13.55;5.20;;;15.50;99.90;;;;;;5017290;28;20052;-91
2022/11/01 00:49:35;;;;;;;9.10;4.53;;;15.40;99.90;;;;;;5017016;28;20448;-91
2022/11/01 00:52:01;;;;;;;13.50;4.85;;;15.50;99.90;;;;;;5017584;28;20032;-91
2022/11/01 00:54:26;;;;;;;10.90;4.53;;;15.40;99.90;;;;;;5019558;28;20061;-92
2022/11/01 00:56:52;;;;;;;10.23;5.13;;;15.40;99.90;;;;;;5021296;28;20026;-90
2022/11/01 00:59:18;;;;;;;10.75;4.55;;;15.40;99.90;;;;;;5019862;28;20084;-93
2022/11/01 01:01:43;;;;;;;9.35;4.82;;;15.40;99.90;;;;;;5019979;28;20037;-93
2022/11/01 01:04:09;;;;;;;11.73;4.47;;;15.40;99.90;;;;;;5018807;28;20037;-93
2022/11/01 01:06:34;;;;;;;8.98;4.40;;;15.40;99.90;;;;;;5021097;28;20037;-93
2022/11/01 01:09:00;;;;;;;13.40;3.90;;;15.50;99.90;;;;;;5024669;28;20162;-94
2022/11/01 01:11:26;;;;;;;11.23;4.50;;;15.40;99.90;;;;;;5023860;28;21866;-93
2022/11/01 01:13:52;;;;;;;8.50;4.28;;;15.50;99.90;;;;;;5042566;28;20036;-92
2022/11/01 01:16:17;;;;;;;11.32;4.30;;;15.50;99.90;;;;;;5024653;28;20033;-92
2022/11/01 01:18:43;;;;;;;10.55;4.82;;;15.40;99.90;;;;;;5030650;28;20033;-92
2022/11/01 01:21:09;;;;;;;8.82;4.38;;;15.50;99.90;;;;;;5043648;28;20036;-93
2022/11/01 01:23:35;;;;;;;11.60;4.95;;;15.50;99.90;;;;;;5024633;28;20029;-91
2022/11/01 01:26:07;;;;;;;7.85;4.30;;;15.40;99.90;;;;;;5029271;28;20060;-91
2022/11/01 01:28:33;;;;;;;14.82;4.35;;;15.40;99.90;;;;;;5031746;28;20079;-90
2022/11/01 01:30:59;;;;;;;8.60;3.88;;;15.40;99.90;;;;;;5022520;28;20136;-92
2022/11/01 01:33:25;;;;;;;7.22;4.47;;;15.40;99.90;;;;;;5021187;28;20060;-92
2022/11/01 01:35:50;;;;;;;12.27;5.25;;;15.40;99.90;;;;;;5017129;28;20029;-92
2022/11/01 01:38:16;;;;;;;8.20;3.70;;;15.40;99.90;;;;;;5019448;28;20056;-92
2022/11/01 01:40:42;;;;;;;7.47;3.97;;;15.40;99.90;;;;;;5016856;28;20120;-92
2022/11/01 01:43:11;;;;;;;10.90;4.13;;;15.40;99.90;;;;;;5017820;28;20033;-93
2022/11/01 01:45:40;;;;;;;11.80;4.38;;;15.40;99.90;;;;;;5018090;28;20482;-93
2022/11/01 01:48:26;;;;;;;9.07;3.90;;;15.50;99.90;;;;;;5008351;28;20026;-93
2022/11/01 01:50:58;;;;;;;12.80;4.70;;;15.50;99.90;;;;;;5016590;28;20021;-92
2022/11/01 01:53:49;;;;;;;8.70;4.07;;;15.50;99.90;;;;;;5015266;28;20040;-92
2022/11/01 01:56:25;;;;;;;8.70;3.78;;;15.50;99.90;;;;;;5006709;28;20067;-92
2022/11/01 01:59:00;;;;;;;11.85;3.88;;;15.50;99.90;;;;;;5021761;28;20135;-91
2022/11/01 02:01:26;;;;;;;9.57;3.58;;;15.60;99.90;;;;;;5017089;28;20026;-92
2022/11/01 02:03:52;;;;;;;9.40;3.92;;;15.50;99.90;;;;;;5012985;28;20040;-91
2022/11/01 02:06:20;;;;;;;9.80;3.53;;;15.60;99.90;;;;;;5010844;28;20038;-92
2022/11/01 02:08:51;;;;;;;10.75;3.53;;;15.60;99.90;;;;;;5018109;28;20030;-92
2022/11/01 02:11:19;;;;;;;7.68;3.50;;;15.60;99.90;;;;;;5017566;28;20029;-93
2022/11/01 02:13:44;;;;;;;9.20;3.88;;;15.60;99.90;;;;;;5024294;28;20021;-92
2022/11/01 02:16:10;;;;;;;10.30;3.92;;;15.60;99.90;;;;;;5017984;28;20030;-92
2022/11/01 02:19:03;;;;;;;8.52;4.25;;;15.60;99.90;;;;;;5017238;28;20028;-92
2022/11/01 02:21:47;;;;;;;6.25;3.45;;;15.70;99.90;;;;;;5012393;28;20112;-92
2022/11/01 02:25:03;;;;;;;8.13;3.17;;;15.80;99.90;;;;;;5019566;28;20033;-91
2022/11/01 02:27:37;;;;;;;6.40;3.28;;;15.90;99.90;;;;;;4972187;28;20423;-93
2022/11/01 02:30:21;;;;;;;6.65;3.35;;;16.00;99.90;;;;;;5002721;28;20145;-92
2022/11/01 02:33:10;;;;;;;9.38;3.85;;;16.10;99.90;;;;;;5015507;28;20033;-91
2022/11/01 02:35:43;;;;;;;6.68;3.30;;;16.20;99.90;;;;;;5025020;28;20390;-90
2022/11/01 02:38:35;;;;;;;8.57;3.03;;;16.30;99.90;;;;;;5009758;28;20500;-90
2022/11/01 02:41:22;;;;;;;7.82;2.80;;;16.30;99.90;;;;;;5010704;28;20392;-91
2022/11/01 02:43:56;;;;;;;8.75;2.80;;;16.40;99.90;;;;;;5013153;28;20037;-91
2022/11/01 02:49:11;;;;;;;8.77;2.80;;;16.40;99.90;;;;;;5031954;28;20187;-92
2022/11/01 02:51:38;;;;;;;4.97;2.60;;;16.50;99.90;;;;;;5035684;28;20029;-92
2022/11/01 02:54:16;;;;;;;10.55;3.33;;;16.50;99.90;;;;;;5022028;28;20121;-91
2022/11/01 02:56:42;;;;;;;10.18;3.03;;;16.50;99.90;;;;;;5009439;28;20018;-91
2022/11/01 02:59:15;;;;;;;9.57;3.17;;;16.60;99.90;;;;;;5013045;28;20037;-90
2022/11/01 03:01:43;;;;;;;9.27;3.13;;;16.50;99.90;;;;;;5017142;28;20025;-91
2022/11/01 03:04:09;;;;;;;7.97;2.72;;;16.50;99.90;;;;;;5016471;28;20401;-91
2022/11/01 03:06:40;;;;;;;8.63;4.18;;;16.50;99.90;;;;;;5020784;28;20026;-92
2022/11/01 03:09:11;;;;;;;7.97;3.08;;;16.40;99.90;;;;;;5016920;28;20022;-91
2022/11/01 03:11:54;;;;;;;6.05;2.72;;;16.40;99.90;;;;;;5020408;28;20048;-92
2022/11/01 03:14:51;;;;;;;7.55;3.08;;;16.40;99.90;;;;;;5019142;28;20037;-92
2022/11/01 03:17:40;;;;;;;4.93;2.10;;;16.50;99.90;;;;;;5017295;28;20034;-93
2022/11/01 03:20:18;;;;;;;7.20;2.38;;;16.40;99.90;;;;;;5012874;28;20037;-90
2022/11/01 03:22:49;;;;;;;6.72;3.00;;;16.50;99.90;;;;;;5036585;28;20041;-92
2022/11/01 03:25:39;;;;;;;7.32;2.65;;;16.50;99.90;;;;;;5018203;28;20192;-91
2022/11/01 03:28:30;;;;;;;6.50;2.83;;;16.50;99.90;;;;;;5029498;28;20585;-91
2022/11/01 03:31:01;;;;;;;8.98;3.20;;;16.40;99.90;;;;;;5007152;28;20064;-91
2022/11/01 03:33:29;;;;;;;5.05;2.55;;;16.40;99.90;;;;;;5019407;28;20029;-91
2022/11/01 03:36:01;;;;;;;6.40;2.65;;;16.40;99.90;;;;;;5017049;28;20099;-91
2022/11/01 03:38:31;;;;;;;5.80;2.63;;;16.30;99.90;;;;;;5022937;28;20033;-93
2022/11/01 03:41:01;;;;;;;8.65;2.78;;;16.30;99.90;;;;;;5034557;28;20029;-90
2022/11/01 03:43:30;;;;;;;5.95;2.10;;;16.30;99.90;;;;;;5018524;28;20033;-91
2022/11/01 03:45:56;;;;;;;5.07;2.25;;;16.30;99.90;;;;;;5030992;28;20489;-92
2022/11/01 03:48:21;;;;;;;5.60;2.28;;;16.30;99.90;;;;;;5017544;28;20033;-91
2022/11/01 03:50:48;;;;;;;8.02;2.80;;;16.30;99.90;;;;;;5018068;28;20112;-92
2022/11/01 03:53:14;;;;;;;7.50;2.92;;;16.30;99.90;;;;;;5017521;28;20125;-93
2022/11/01 03:55:40;;;;;;;7.50;2.33;;;16.30;99.90;;;;;;5018497;28;20053;-91
2022/11/01 03:58:06;;;;;;;4.78;1.77;;;16.30;99.90;;;;;;5017561;28;20033;-90
2022/11/01 04:00:43;;;;;;;4.40;1.80;;;16.30;99.90;;;;;;5019801;28;20499;-91
2022/11/01 04:03:10;;;;;;;8.07;2.00;;;16.30;99.90;;;;;;5017165;28;20022;-91
2022/11/01 04:05:38;;;;;;;7.00;1.60;;;16.20;99.90;;;;;;5035431;28;20041;-92
2022/11/01 04:08:05;;;;;;;12.23;1.52;;;16.20;99.90;;;;;;5017604;28;20026;-91
2022/11/01 04:10:32;;;;;;;5.10;1.10;;;16.20;99.90;;;;;;5041732;28;20053;-92
2022/11/01 04:12:58;;;;;;;4.82;0.90;;;16.30;99.90;;;;;;5017130;28;22491;-94
2022/11/01 04:21:10;;;;;;;3.30;0.52;;;16.20;99.90;;;;;;5036255;28;20083;-91
2022/11/01 04:23:36;;;;;;;0.87;0.30;;;16.10;99.90;;;;;;5017237;28;20047;-93
2022/11/01 04:26:02;;;;;;;1.63;0.30;;;16.00;99.90;;;;;;5009833;28;20800;-91
2022/11/01 04:28:28;;;;;;;3.00;0.30;;;16.00;99.90;;;;;;5017746;28;20024;-92
2022/11/01 04:30:54;;;;;;;2.65;0.20;;;15.90;99.90;;;;;;5019097;28;20486;-93
2022/11/01 04:33:19;;;;;;;3.03;0.20;;;15.90;99.90;;;;;;5017688;28;20028;-91
2022/11/01 04:35:45;;;;;;;3.60;0.10;;;15.80;99.90;;;;;;5017455;28;20401;-90
2022/11/01 04:38:11;;;;;;;3.13;0.30;;;15.70;99.90;;;;;;5017368;28;20029;-92
2022/11/01 04:40:37;;;;;;;7.28;0.20;;;15.60;99.90;;;;;;5016093;28;20036;-92
2022/11/01 04:43:03;;;;;;;5.10;0.20;;;15.60;99.90;;;;;;5023183;28;20033;-93
2022/11/01 04:45:29;;;;;;;1.67;0.10;;;15.50;99.90;;;;;;5017059;28;20040;-91
2022/11/01 04:48:12;;;;;;;2.25;0.17;;;15.50;99.90;;;;;;5015633;28;20034;-93
2022/11/01 04:50:38;;;;;;;1.60;0.10;;;15.30;99.90;;;;;;5017201;28;20026;-90
2022/11/01 04:53:04;;;;;;;2.55;0.35;;;15.20;99.90;;;;;;5032403;28;20391;-90
2022/11/01 04:55:29;;;;;;;1.58;0.10;;;15.20;99.90;;;;;;5016785;28;20095;-92
2022/11/01 04:57:55;;;;;;;3.55;0.20;;;15.10;99.90;;;;;;5017564;28;20499;-93
2022/11/01 05:00:24;;;;;;;1.10;0.10;;;15.00;99.90;;;;;;5018758;28;20025;-93
2022/11/01 05:02:50;;;;;;;1.42;0.20;;;15.00;99.90;;;;;;5015690;28;20022;-92
2022/11/01 05:05:16;;;;;;;2.25;0.15;;;14.90;99.90;;;;;;5017743;28;20045;-93
2022/11/01 05:07:42;;;;;;;0.75;0.10;;;14.80;99.90;;;;;;5017716;28;20021;-93
2022/11/01 05:10:09;;;;;;;0.80;0.10;;;14.80;99.90;;;;;;5037701;28;20036;-90
2022/11/01 05:12:35;;;;;;;1.30;0.20;;;14.80;99.90;;;;;;5018820;28;20290;-90
2022/11/01 05:15:00;;;;;;;3.05;0.17;;;14.70;99.90;;;;;;5017173;28;20064;-93
2022/11/01 05:17:26;;;;;;;1.13;0.20;;;14.70;99.90;;;;;;5017457;28;20075;-92
2022/11/01 05:19:52;;;;;;;3.72;0.15;;;14.60;99.90;;;;;;5016096;28;20473;-92
2022/11/01 05:22:17;;;;;;;1.70;0.20;;;14.60;99.90;;;;;;5015130;28;20033;-92
2022/11/01 05:24:43;;;;;;;0.90;0.10;;;14.50;99.90;;;;;;5007734;28;20493;-90
2022/11/01 05:27:09;;;;;;;1.58;0.10;;;14.50;99.90;;;;;;5016160;28;20079;-91
2022/11/01 05:29:34;;;;;;;4.43;0.20;;;14.50;99.90;;;;;;5016907;28;20192;-90
2022/11/01 05:32:00;;;;;;;3.63;0.30;;;14.50;99.90;;;;;;5016348;28;20026;-92
2022/11/01 05:34:26;;;;;;;3.20;0.20;;;14.50;99.90;;;;;;5015454;28;20061;-91
2022/11/01 05:36:52;;;;;;;1.88;0.20;;;14.40;99.90;;;;;;5012467;28;20022;-92
2022/11/01 05:39:18;;;;;;;2.38;0.22;;;14.50;99.90;;;;;;5025432;28;20018;-92
2022/11/01 05:41:44;;;;;;;3.35;0.20;;;14.50;99.90;;;;;;5007645;28;20068;-91
2022/11/01 05:44:09;;;;;;;2.55;0.20;;;14.50;99.90;;;;;;5013123;28;20088;-90
2022/11/01 05:46:35;;;;;;;3.00;0.20;;;14.50;99.90;;;;;;5000720;28;20037;-92
2022/11/01 05:49:03;;;;;;;1.30;0.20;;;14.50;99.90;;;;;;5014479;28;20033;-91
2022/11/01 05:51:29;;;;;;;1.05;0.10;;;14.50;99.90;;;;;;5013754;28;20071;-92
2022/11/01 05:53:54;;;;;;;2.08;0.10;;;14.40;99.90;;;;;;5034386;28;20417;-90
2022/11/01 05:56:20;;;;;;;3.00;0.20;;;14.30;99.90;;;;;;5030244;28;20052;-90
2022/11/01 05:58:46;;;;;;;2.33;0.20;;;14.20;99.90;;;;;;5025175;28;20029;-91
2022/11/01 06:01:12;;;;;;;5.75;0.70;;;14.20;99.90;;;;;;5012255;28;20026;-91
2022/11/01 06:03:37;;;;;;;3.78;0.20;;;14.10;99.90;;;;;;5015562;28;20025;-91
2022/11/01 06:06:03;;;;;;;1.65;0.20;;;14.00;99.90;;;;;;5017685;28;20489;-92
2022/11/01 06:08:29;;;;;;;4.47;0.50;;;14.00;99.90;;;;;;5032719;28;20022;-90
2022/11/01 06:11:04;;;;;;;6.15;1.20;;;13.90;99.90;;;;;;5033183;28;20030;-92
2022/11/01 06:13:30;;;;;;;2.50;0.20;;;13.90;99.90;;;;;;5018767;28;20370;-92
2022/11/01 06:16:03;;;;;;;3.90;0.20;;;13.80;99.90;;;;;;5018859;28;20064;-91
2022/11/01 06:18:30;;;;;;;2.33;0.15;;;13.80;99.90;;;;;;5036628;28;20075;-92
2022/11/01 06:20:56;;;;;;;4.78;0.28;;;13.70;99.90;;;;;;5029878;28;20022;-92
2022/11/01 06:23:22;;;;;;;1.27;0.20;;;13.70;99.90;;;;;;5020424;28;20028;-93
2022/11/01 06:25:48;;;;;;;4.70;0.30;;;13.60;99.90;;;;;;5040484;28;20104;-92
2022/11/01 06:28:14;;;;;;;3.42;0.73;;;13.60;99.90;;;;;;5021395;28;20465;-92
2022/11/01 06:30:39;;;;;;;4.38;0.20;;;13.50;99.90;;;;;;5038689;28;20076;-93
2022/11/01 06:33:05;;;;;;;2.97;0.50;;;13.60;99.90;;;;;;5025216;28;20022;-93
2022/11/01 06:35:32;;;;;;;3.30;0.20;;;13.60;99.90;;;;;;5024529;28;20394;-91
2022/11/01 06:38:03;;;;;;;3.40;0.25;;;13.50;99.90;;;;;;5016708;28;20037;-93
2022/11/01 06:40:28;;;;;;;2.30;0.20;;;13.50;99.90;;;;;;5012946;28;20167;-93
2022/11/01 06:42:59;;;;;;;3.13;0.22;;;13.50;99.90;;;;;;5022634;28;20081;-90
2022/11/01 06:45:24;;;;;;;3.95;0.40;;;13.50;99.90;;;;;;5028100;28;20101;-91
2022/11/01 06:47:50;;;;;;;6.57;0.40;;;13.40;99.90;;;;;;5018681;28;20112;-92
2022/11/01 06:50:15;;;;;;;5.05;0.40;;;13.40;99.90;;;;;;5022679;28;20045;-92
2022/11/01 06:52:41;;;;;;;2.85;0.40;;;13.40;99.90;;;;;;5017941;28;20029;-91
2022/11/01 06:55:07;;;;;;;3.75;0.30;;;13.40;99.90;;;;;;5020420;28;20433;-91
2022/11/01 06:57:32;;;;;;;3.72;0.20;;;13.40;99.90;;;;;;5019279;28;20386;-91
2022/11/01 06:59:58;;;;;;;5.25;0.38;;;13.30;99.90;;;;;;5018496;28;20037;-92
2022/11/01 07:02:24;;;;;;;7.80;1.10;;;13.30;99.90;;;;;;5018705;28;20026;-91
2022/11/01 07:04:50;;;;;;;6.38;0.30;;;13.30;99.90;;;;;;5012906;28;20037;-91
2022/11/01 07:07:16;;;;;;;5.75;0.40;;;13.30;99.90;;;;;;5032238;28;20481;-92
2022/11/01 07:09:42;;;;;;;5.25;0.40;;;13.30;99.90;;;;;;5018447;28;21880;-91
2022/11/01 07:12:07;;;;;;;8.55;1.30;;;13.30;99.90;;;;;;5017580;28;20037;-91
2022/11/01 07:14:33;;;;;;;5.93;0.40;;;13.30;99.90;;;;;;5015599;28;21945;-91
2022/11/01 07:16:58;;;;;;;7.13;0.60;;;13.30;99.90;;;;;;5020970;28;20048;-93
2022/11/01 07:19:24;;;;;;;7.80;0.40;;;13.30;99.90;;;;;;5032384;28;20057;-90
2022/11/01 07:21:49;;;;;;;7.28;0.55;;;13.30;99.90;;;;;;5016340;28;20036;-92
2022/11/01 07:24:15;;;;;;;5.57;0.40;;;13.20;99.90;;;;;;5015683;28;20026;-92
2022/11/01 07:26:40;;;;;;;6.90;0.30;;;13.30;99.90;;;;;;5018141;28;20029;-90
2022/11/01 07:29:06;;;;;;;6.75;0.45;;;13.30;99.90;;;;;;5013940;28;20582;-92
2022/11/01 07:31:32;;;;;;;5.40;0.30;;;13.20;99.90;;;;;;5015824;28;20120;-93
2022/11/01 07:33:58;;;;;;;4.95;0.35;;;13.30;99.90;;;;;;5017460;28;20037;-92
2022/11/01 07:36:24;;;;;;;7.68;0.40;;;13.30;99.90;;;;;;5013551;28;20076;-92
2022/11/01 07:38:49;;;;;;;4.82;0.30;;;13.30;99.90;;;;;;5010118;28;20052;-93
2022/11/01 07:41:15;;;;;;;3.45;0.22;;;13.30;99.90;;;;;;5010159;28;20559;-91
2022/11/01 07:43:40;;;;;;;7.22;0.40;;;13.40;99.90;;;;;;5005525;28;20064;-91
2022/11/01 07:46:06;;;;;;;10.25;0.45;;;13.40;99.90;;;;;;5013652;28;20075;-90
2022/11/01 07:48:32;;;;;;;7.53;0.40;;;13.40;99.90;;;;;;5011466;28;20029;-91
2022/11/01 07:50:58;;;;;;;7.78;0.50;;;13.50;99.90;;;;;;5009466;28;20026;-90
2022/11/01 07:53:24;;;;;;;3.97;0.47;;;13.50;99.90;;;;;;5016196;28;20036;-93
2022/11/01 07:55:50;;;;;;;6.80;0.90;;;13.50;99.90;;;;;;5016512;28;20025;-91
2022/11/01 07:58:16;;;;;;;9.82;0.70;;;13.50;99.90;;;;;;5013870;28;20124;-90
2022/11/01 08:00:43;;;;;;;7.70;0.43;;;13.60;99.90;;;;;;5016880;28;20587;-92
2022/11/01 08:03:11;;;;;;;11.85;0.47;;;13.60;99.90;;;;;;5019822;28;20025;-92
2022/11/01 08:05:37;;;;;;;7.72;0.55;;;13.60;99.90;;;;;;5013920;28;20447;-91
2022/11/01 08:08:04;;;;;;;7.32;0.88;;;13.60;99.90;;;;;;5018559;28;20033;-92
2022/11/01 08:10:30;;;;;;;4.05;0.38;;;13.70;99.90;;;;;;5015704;28;20051;-92
2022/11/01 08:13:16;;;;;;;11.52;0.50;;;13.70;99.90;;;;;;5021503;28;20367;-91
2022/11/01 08:15:43;;;;;;;5.03;0.65;;;13.70;99.90;;;;;;5013069;28;20021;-92
2022/11/01 08:18:08;;;;;;;11.18;0.50;;;13.80;99.90;;;;;;5016032;28;20025;-90
2022/11/01 08:20:34;;;;;;;6.80;0.50;;;13.80;99.90;;;;;;5017955;28;20473;-89
2022/11/01 08:22:59;;;;;;;6.82;0.40;;;13.80;99.90;;;;;;5016833;28;20057;-91
2022/11/01 08:25:26;;;;;;;6.28;0.50;;;13.80;99.90;;;;;;5010431;28;20125;-90
2022/11/01 08:27:59;;;;;;;10.00;1.05;;;13.80;99.90;;;;;;5013435;28;20025;-91
2022/11/01 08:30:24;;;;;;;9.50;0.65;;;13.90;99.90;;;;;;5013320;28;20053;-92
2022/11/01 08:32:57;;;;;;;7.55;0.52;;;13.90;99.90;;;;;;5008791;28;20024;-92
2022/11/01 08:35:22;;;;;;;6.00;0.60;;;14.00;99.90;;;;;;5013679;28;20025;-94
2022/11/01 08:37:52;;;;;;;10.70;0.80;;;14.00;99.90;;;;;;5013531;28;20433;-91
2022/11/01 08:40:19;;;;;;;9.38;0.90;;;14.10;99.90;;;;;;5017967;28;20048;-92
2022/11/01 08:42:44;;;;;;;11.68;1.05;;;14.10;99.90;;;;;;5017976;28;20029;-92
2022/11/01 08:45:10;;;;;;;7.07;0.90;;;14.10;99.90;;;;;;5016389;28;20052;-92
2022/11/01 08:47:37;;;;;;;10.20;0.70;;;14.20;99.90;;;;;;5016761;28;20546;-92
2022/11/01 08:50:03;;;;;;;9.13;0.60;;;14.20;99.90;;;;;;5014506;28;20486;-90
2022/11/01 08:52:29;;;;;;;9.35;1.15;;;14.30;99.90;;;;;;5012267;28;20072;-92
2022/11/01 08:54:54;;;;;;;6.82;0.40;;;14.30;99.90;;;;;;5013811;28;20057;-91
2022/11/01 08:57:20;;;;;;;11.10;0.60;;;14.20;99.90;;;;;;5016882;28;20026;-91
2022/11/01 08:59:45;;;;;;;5.03;0.40;;;14.30;99.90;;;;;;5017515;28;20446;-91
2022/11/01 09:02:11;;;;;;;10.70;0.73;;;14.30;99.90;;;;;;5016481;28;20025;-93
2022/11/01 09:04:37;;;;;;;6.72;0.40;;;14.30;99.90;;;;;;5017772;28;20037;-92
2022/11/01 09:07:02;;;;;;;9.32;0.70;;;14.30;99.90;;;;;;5016257;28;20026;-92
2022/11/01 09:09:28;;;;;;;7.28;1.02;;;14.40;99.90;;;;;;5015519;28;20428;-93
2022/11/01 09:11:54;;;;;;;8.65;0.70;;;14.40;99.90;;;;;;5015052;28;20113;-93
2022/11/01 09:14:23;;;;;;;14.20;0.95;;;14.40;99.90;;;;;;5016796;28;20192;-92
2022/11/01 09:16:49;;;;;;;7.28;0.52;;;14.40;99.90;;;;;;5016730;28;20034;-92
2022/11/01 09:19:15;;;;;;;8.25;0.52;;;14.40;99.90;;;;;;5016845;28;20032;-92
2022/11/01 09:21:43;;;;;;;8.43;0.50;;;14.50;99.90;;;;;;5018926;28;20128;-92
2022/11/01 09:24:10;;;;;;;10.52;0.70;;;14.50;99.90;;;;;;5013964;28;20037;-92
2022/11/01 09:26:36;;;;;;;14.73;0.80;;;14.60;99.90;;;;;;5033225;28;20113;-89
2022/11/01 09:29:02;;;;;;;14.48;0.88;;;14.60;99.90;;;;;;5033996;28;20055;-92
2022/11/01 09:31:28;;;;;;;10.07;0.60;;;14.60;99.90;;;;;;5015736;28;20052;-92
2022/11/01 09:33:56;;;;;;;7.82;0.55;;;14.60;99.90;;;;;;5018114;28;20026;-89
2022/11/01 09:36:22;;;;;;;15.52;1.30;;;14.70;99.90;;;;;;5016556;28;20048;-92
2022/11/01 09:38:48;;;;;;;8.38;0.63;;;14.70;99.90;;;;;;5006655;28;20030;-90
2022/11/01 09:41:31;;;;;;;16.05;0.93;;;14.80;99.90;;;;;;5015341;28;20092;-92
2022/11/01 09:44:00;;;;;;;15.13;1.85;;;14.80;99.90;;;;;;5016337;28;20061;-93
2022/11/01 09:46:42;;;;;;;12.75;1.58;;;14.80;99.90;;;;;;5015515;28;20030;-92
2022/11/01 09:49:11;;;;;;;9.52;0.80;;;14.90;99.90;;;;;;5014145;28;20228;-92
2022/11/01 09:51:38;;;;;;;9.18;0.57;;;14.90;99.90;;;;;;5015222;28;20033;-92
2022/11/01 09:54:06;;;;;;;8.30;0.50;;;14.90;99.90;;;;;;5016522;28;20017;-90
2022/11/01 09:57:01;;;;;;;6.78;0.63;;;15.00;99.90;;;;;;5018919;28;20089;-93
2022/11/01 09:59:59;;;;;;;10.90;0.70;;;15.00;99.90;;;;;;4974793;28;20526;-92
2022/11/01 10:02:39;;;;;;;8.25;0.70;;;15.00;99.90;;;;;;5014413;28;20033;-90
2022/11/01 10:05:13;;;;;;;7.93;0.55;;;15.10;99.90;;;;;;5015138;28;20096;-92
2022/11/01 10:08:15;;;;;;;10.40;0.90;;;15.10;99.90;;;;;;5030489;28;20033;-91
2022/11/01 10:11:18;;;;;;;10.63;0.52;;;15.20;99.90;;;;;;5001810;28;20034;-92
2022/11/01 10:14:15;;;;;;;7.70;0.40;;;15.10;99.90;;;;;;5019491;28;20128;-91
2022/11/01 10:17:03;;;;;;;5.70;0.50;;;15.00;99.90;;;;;;5015758;28;20022;-93
2022/11/01 10:19:32;;;;;;;11.00;0.80;;;15.00;99.90;;;;;;5015140;28;20033;-91
2022/11/01 10:22:10;;;;;;;9.02;0.90;;;15.00;99.90;;;;;;5012791;28;20037;-93
2022/11/01 10:24:56;;;;;;;9.60;1.85;;;15.00;99.90;;;;;;5022543;28;20025;-92
2022/11/01 10:27:31;;;;;;;7.35;0.60;;;15.00;99.90;;;;;;5029314;28;20033;-92
2022/11/01 10:30:09;;;;;;;6.95;0.60;;;15.10;99.90;;;;;;5012835;28;20077;-91
2022/11/01 10:32:38;;;;;;;8.60;0.90;;;15.10;99.90;;;;;;5004984;28;20055;-91
2022/11/01 10:35:13;;;;;;;11.07;0.73;;;15.20;99.90;;;;;;5014362;28;20030;-92
2022/11/01 10:37:45;;;;;;;8.93;0.80;;;15.10;99.90;;;;;;5012908;28;20037;-91
2022/11/01 10:40:28;;;;;;;9.33;0.57;;;15.20;99.90;;;;;;5016280;28;20063;-91
2022/11/01 10:42:54;;;;;;;12.75;0.90;;;15.20;99.90;;;;;;4997115;28;20836;-93
2022/11/01 10:45:22;;;;;;;11.20;0.70;;;15.20;99.90;;;;;;5008243;28;20033;-93
2022/11/01 10:47:53;;;;;;;11.55;1.10;;;15.30;99.90;;;;;;5016336;28;20374;-94
2022/11/01 10:50:26;;;;;;;9.88;0.60;;;15.30;99.90;;;;;;5034094;28;20032;-94
2022/11/01 10:52:57;;;;;;;8.90;0.70;;;15.40;99.90;;;;;;5030346;28;20025;-93
2022/11/01 10:55:40;;;;;;;11.07;0.70;;;15.40;99.90;;;;;;5033946;28;20446;-94
2022/11/01 10:58:34;;;;;;;6.72;1.00;;;15.40;99.90;;;;;;5035355;28;20033;-93
2022/11/01 11:01:04;;;;;;;8.50;0.70;;;15.40;99.90;;;;;;5010233;28;20123;-95
2022/11/01 11:03:30;;;;;;;7.38;0.77;;;15.50;99.90;;;;;;5022276;28;20033;-95
2022/11/01 11:05:59;;;;;;;9.90;0.68;;;15.50;99.90;;;;;;5024118;28;20034;-93
2022/11/01 11:08:25;;;;;;;8.25;0.82;;;15.60;99.90;;;;;;5023575;28;20021;-95
2022/11/01 11:10:51;;;;;;;6.03;0.60;;;15.60;99.90;;;;;;5034766;28;20537;-94
2022/11/01 11:13:23;;;;;;;8.45;1.15;;;15.60;99.90;;;;;;5019355;28;20029;-95
2022/11/01 11:16:03;;;;;;;5.47;0.60;;;15.60;99.90;;;;;;5020481;28;20099;-93
2022/11/01 11:18:36;;;;;;;8.15;1.23;;;15.60;99.90;;;;;;5037623;28;20041;-95
2022/11/01 11:21:05;;;;;;;12.50;0.73;;;15.60;99.90;;;;;;5017845;28;20115;-94
2022/11/01 11:23:33;;;;;;;7.68;0.90;;;15.70;99.90;;;;;;5039668;28;20077;-94
2022/11/01 11:26:05;;;;;;;9.93;0.80;;;15.70;99.90;;;;;;5028907;28;20105;-94
2022/11/01 11:28:34;;;;;;;11.05;0.63;;;15.80;99.90;;;;;;5031760;28;20025;-94
2022/11/01 11:31:21;;;;;;;4.88;0.50;;;15.80;99.90;;;;;;5036258;28;20045;-93
2022/11/01 11:33:52;;;;;;;6.68;0.60;;;15.90;99.90;;;;;;5030483;28;20091;-95
2022/11/01 11:36:31;;;;;;;11.73;0.77;;;15.90;99.90;;;;;;5027121;28;20088;-95
2022/11/01 11:38:58;;;;;;;7.03;0.50;;;15.90;99.90;;;;;;5022902;28;20030;-94
2022/11/01 11:41:32;;;;;;;7.40;0.40;;;15.90;99.90;;;;;;5007910;28;20055;-95
2022/11/01 11:43:58;;;;;;;7.68;0.60;;;16.00;99.90;;;;;;5020913;28;20053;-95
2022/11/01 11:46:25;;;;;;;8.20;0.80;;;16.00;99.90;;;;;;5023991;28;20115;-95
2022/11/01 11:49:01;;;;;;;7.80;0.63;;;16.10;99.90;;;;;;5019426;28;20117;-95
2022/11/01 11:51:36;;;;;;;8.55;0.60;;;16.10;99.90;;;;;;5021928;28;20482;-96
2022/11/01 11:54:13;;;;;;;4.75;0.40;;;16.10;99.90;;;;;;5020728;28;20482;-94
2022/11/01 11:56:39;;;;;;;8.95;0.50;;;16.10;99.90;;;;;;5030135;28;20026;-95
2022/11/01 11:59:15;;;;;;;11.52;1.15;;;16.10;99.90;;;;;;5010852;28;20329;-95
2022/11/01 12:01:41;;;;;;;8.30;0.50;;;16.20;99.90;;;;;;5022732;28;20026;-94
2022/11/01 12:04:11;;;;;;;7.93;0.50;;;16.20;99.90;;;;;;5020997;28;20048;-95
2022/11/01 12:06:41;;;;;;;7.25;0.77;;;16.30;99.90;;;;;;5020570;28;20037;-94
2022/11/01 12:09:45;;;;;;;11.77;0.50;;;16.30;99.90;;;;;;5023497;28;20033;-96
2022/11/01 12:12:21;;;;;;;7.13;0.60;;;16.40;99.90;;;;;;5023276;28;20017;-95
2022/11/01 12:14:47;;;;;;;11.88;0.50;;;16.40;99.90;;;;;;5021563;28;20026;-96
2022/11/01 12:17:31;;;;;;;5.32;0.63;;;16.40;99.90;;;;;;5022857;28;20500;-95
2022/11/01 12:20:21;;;;;;;5.57;0.50;;;16.50;99.90;;;;;;5028808;28;20107;-96
2022/11/01 12:23:05;;;;;;;9.45;0.55;;;16.50;99.90;;;;;;5019108;28;20025;-95
2022/11/01 12:25:33;;;;;;;9.07;0.45;;;16.50;99.90;;;;;;5024511;28;20033;-96
2022/11/01 12:28:10;;;;;;;8.50;0.70;;;16.50;99.90;;;;;;5023045;28;20025;-95
2022/11/01 12:30:38;;;;;;;4.32;0.40;;;16.50;99.90;;;;;;5018110;28;20057;-96
2022/11/01 12:33:26;;;;;;;11.00;0.70;;;16.60;99.90;;;;;;5007739;28;20030;-95
2022/11/01 12:35:53;;;;;;;7.50;0.50;;;16.70;99.90;;;;;;5030319;28;20030;-95
2022/11/01 12:38:44;;;;;;;6.60;0.43;;;16.80;99.90;;;;;;5032003;28;20094;-96
2022/11/01 12:41:50;;;;;;;5.25;0.57;;;16.70;99.90;;;;;;5031962;28;20097;-96
2022/11/01 12:44:56;;;;;;;6.22;0.40;;;16.90;99.90;;;;;;5029065;28;20136;-96
2022/11/01 12:47:42;;;;;;;7.07;0.45;;;16.90;99.90;;;;;;5021391;28;20042;-96
2022/11/01 12:50:43;;;;;;;7.22;0.50;;;16.80;99.90;;;;;;5023595;28;20033;-96
2022/11/01 12:53:33;;;;;;;9.82;0.57;;;16.80;99.90;;;;;;5031459;28;20038;-96
2022/11/01 12:55:59;;;;;;;4.47;0.50;;;16.80;99.90;;;;;;5024802;28;20065;-95
2022/11/01 12:58:31;;;;;;;7.15;0.50;;;16.80;99.90;;;;;;5006873;28;20034;-96
2022/11/01 13:01:22;;;;;;;5.97;0.30;;;16.80;99.90;;;;;;5018256;28;20010;-96
2022/11/01 13:04:06;;;;;;;7.85;0.40;;;16.90;99.90;;;;;;5029073;28;20292;-96
2022/11/01 13:07:18;;;;;;;4.10;0.43;;;17.00;99.90;;;;;;5029316;28;20061;-95
2022/11/01 13:10:39;;;;;;;6.88;0.45;;;17.10;99.90;;;;;;5030362;28;20038;-96
2022/11/01 13:13:27;;;;;;;6.13;0.50;;;17.20;99.90;;;;;;5031444;28;20061;-96